Time;durP1;ratioP1;P1;durP2;ratioP2;P2;SDS_P1;SDS_P2;PMS_P1;PMS_P2;Temp;Humidity;BMP_temperature;BMP_pressure;BME280_temperature;BME280_humidity;BME280_pressure;Samples;Min_cycle;Max_cycle;Signal;HPM_P1;HPM_P2
2023/12/24 00:02:28;;;;;;;5.13;3.95;;;;;;;6.23;71.87;94173.63;5057809;28;20224;-77
2023/12/24 00:04:55;;;;;;;3.67;3.20;;;;;;;6.32;72.00;94172.69;5041493;28;20209;-77
2023/12/24 00:07:22;;;;;;;3.38;3.08;;;;;;;6.46;71.33;94184.06;5057645;28;20216;-77
2023/12/24 00:09:52;;;;;;;4.05;2.60;;;;;;;6.60;71.02;94170.75;5058352;28;20228;-77
2023/12/24 00:12:18;;;;;;;2.83;2.60;;;;;;;6.76;70.54;94181.78;5057741;28;20299;-77
2023/12/24 00:14:47;;;;;;;4.30;2.80;;;;;;;6.89;70.19;94185.22;5057088;28;20205;-77
2023/12/24 00:17:14;;;;;;;4.68;2.75;;;;;;;6.98;69.65;94183.13;5078379;28;20184;-77
2023/12/24 00:19:41;;;;;;;3.65;2.95;;;;;;;7.07;69.29;94183.75;5077800;28;20200;-77
2023/12/24 00:22:11;;;;;;;3.33;2.40;;;;;;;7.18;68.77;94187.56;5078016;28;20197;-77
2023/12/24 00:24:39;;;;;;;4.13;2.70;;;;;;;7.28;68.49;94188.22;5078077;28;20196;-77
2023/12/24 00:27:07;;;;;;;3.53;2.58;;;;;;;7.36;68.05;94196.25;5078257;28;20185;-77
2023/12/24 00:29:34;;;;;;;3.03;2.40;;;;;;;7.46;67.54;94203.97;5076749;28;20251;-77
2023/12/24 00:32:04;;;;;;;3.80;2.47;;;;;;;7.59;67.36;94212.91;5077860;28;20531;-77
2023/12/24 00:34:36;;;;;;;4.80;2.40;;;;;;;7.70;66.79;94210.44;5078179;28;20193;-77
2023/12/24 00:37:03;;;;;;;3.55;2.08;;;;;;;7.81;66.50;94207.94;5077841;28;20207;-77
2023/12/24 00:39:32;;;;;;;4.03;2.40;;;;;;;7.87;66.19;94207.28;5077880;28;20249;-77
2023/12/24 00:42:04;;;;;;;4.85;2.50;;;;;;;7.99;65.19;94214.66;5077250;28;20295;-77
2023/12/24 00:44:34;;;;;;;2.90;2.28;;;;;;;8.08;64.55;94219.94;5077843;28;20192;-77
2023/12/24 00:47:04;;;;;;;3.25;2.15;;;;;;;8.18;62.89;94216.63;5077502;28;20189;-77
2023/12/24 00:49:34;;;;;;;2.28;1.83;;;;;;;8.26;62.90;94234.88;5077151;28;20640;-77
2023/12/24 00:52:01;;;;;;;2.42;2.22;;;;;;;8.31;62.97;94231.81;5077880;28;20200;-77
2023/12/24 00:54:27;;;;;;;2.30;1.92;;;;;;;8.34;62.58;94249.56;5077136;28;20628;-77
2023/12/24 00:56:54;;;;;;;4.03;2.30;;;;;;;8.37;62.35;94246.09;5077983;28;20193;-77
2023/12/24 00:59:21;;;;;;;2.97;1.80;;;;;;;8.39;61.51;94247.38;5095084;28;20177;-77
2023/12/24 01:01:48;;;;;;;2.00;1.80;;;;;;;8.39;61.25;94263.06;5077614;28;20189;-77
2023/12/24 01:04:17;;;;;;;2.05;1.77;;;;;;;8.37;60.77;94263.41;5077109;28;20210;-77
2023/12/24 01:06:44;;;;;;;2.30;1.80;;;;;;;8.36;60.87;94269.25;5077816;28;20204;-77
2023/12/24 01:09:11;;;;;;;2.65;2.00;;;;;;;8.36;60.13;94275.53;5078057;28;20217;-77
2023/12/24 01:11:38;;;;;;;3.00;2.10;;;;;;;8.37;60.43;94282.63;5077221;28;20596;-77
2023/12/24 01:14:08;;;;;;;2.88;1.98;;;;;;;8.37;60.16;94290.06;5076905;28;20223;-77
2023/12/24 01:16:40;;;;;;;2.30;2.10;;;;;;;8.37;60.94;94290.06;5060150;28;20233;-77
2023/12/24 01:19:09;;;;;;;3.42;2.10;;;;;;;8.36;60.96;94293.97;5056795;28;20653;-77
2023/12/24 01:21:38;;;;;;;2.75;2.00;;;;;;;8.35;60.54;94289.59;5057728;28;20189;-77
2023/12/24 01:24:05;;;;;;;2.08;1.88;;;;;;;8.34;60.33;94290.78;5057091;28;20204;-77
2023/12/24 01:26:36;;;;;;;3.63;1.90;;;;;;;8.34;59.87;94296.25;5057384;28;20197;-77
2023/12/24 01:29:08;;;;;;;1.75;1.60;;;;;;;8.32;59.50;94295.84;5073992;28;20216;-77
2023/12/24 01:31:36;;;;;;;3.03;1.90;;;;;;;8.29;59.12;94302.03;5057766;28;20205;-77
2023/12/24 01:34:04;;;;;;;1.70;1.60;;;;;;;8.26;58.75;94298.06;5056483;28;20209;-77
2023/12/24 01:36:56;;;;;;;3.30;1.85;;;;;;;8.24;58.88;94322.31;5074543;28;20242;-77
2023/12/24 01:39:22;;;;;;;1.83;1.73;;;;;;;8.21;58.54;94312.06;5056633;28;20619;-77
2023/12/24 01:41:49;;;;;;;1.90;1.80;;;;;;;8.18;58.54;94310.03;5057275;28;20251;-77
2023/12/24 01:44:19;;;;;;;2.72;1.67;;;;;;;8.15;58.11;94310.75;5061404;28;20189;-77
2023/12/24 01:46:49;;;;;;;2.35;1.50;;;;;;;8.11;57.80;94318.09;5060559;28;20201;-77
2023/12/24 01:49:19;;;;;;;1.88;1.75;;;;;;;8.09;57.70;94312.16;5060200;28;20611;-77
2023/12/24 01:51:47;;;;;;;1.63;1.50;;;;;;;8.08;58.19;94310.56;5060032;28;20216;-77
2023/12/24 01:54:15;;;;;;;4.53;2.50;;;;;;;8.06;58.20;94323.84;5060362;28;20204;-77
2023/12/24 01:56:43;;;;;;;2.35;1.95;;;;;;;8.03;58.89;94319.88;5060339;28;20570;-77
2023/12/24 01:59:10;;;;;;;2.72;2.20;;;;;;;7.99;59.31;94319.00;5060142;28;20209;-77
2023/12/24 02:01:37;;;;;;;2.30;2.03;;;;;;;7.97;59.66;94319.34;5060148;28;20197;-77
2023/12/24 02:04:06;;;;;;;2.28;2.08;;;;;;;7.95;59.00;94320.81;5060172;28;20227;-77
2023/12/24 02:06:34;;;;;;;2.22;1.70;;;;;;;7.95;58.69;94329.06;5060353;28;20255;-77
2023/12/24 02:09:01;;;;;;;2.25;1.90;;;;;;;7.95;58.68;94332.63;5059732;28;20270;-77
2023/12/24 02:11:31;;;;;;;2.17;1.98;;;;;;;7.93;58.17;94337.66;5059886;28;20197;-77
2023/12/24 02:14:02;;;;;;;1.88;1.77;;;;;;;7.92;58.39;94346.28;5059831;28;20205;-77
2023/12/24 02:16:35;;;;;;;3.30;1.80;;;;;;;7.92;58.47;94343.53;5069873;28;20240;-77
2023/12/24 02:19:02;;;;;;;2.38;1.80;;;;;;;7.91;58.49;94333.69;5059558;28;20201;-77
2023/12/24 02:21:35;;;;;;;1.83;1.67;;;;;;;7.89;58.35;94330.50;5060130;28;20263;-77
2023/12/24 02:24:03;;;;;;;2.35;1.70;;;;;;;7.89;58.48;94336.00;5077166;28;20593;-78
2023/12/24 02:26:35;;;;;;;2.05;1.85;;;;;;;7.87;58.81;94343.78;5043918;28;20197;-78
2023/12/24 02:29:08;;;;;;;2.13;1.85;;;;;;;7.85;58.51;94341.41;5059679;28;20528;-78
2023/12/24 02:31:36;;;;;;;1.95;1.85;;;;;;;7.84;57.96;94345.28;5060010;28;20189;-78
2023/12/24 02:34:05;;;;;;;1.80;1.70;;;;;;;7.83;57.96;94338.19;5059999;28;20197;-78
2023/12/24 02:36:35;;;;;;;2.05;1.70;;;;;;;7.83;57.66;94340.94;5059619;28;20251;-78
2023/12/24 02:39:02;;;;;;;1.88;1.63;;;;;;;7.84;57.53;94349.97;5059249;28;20258;-77
2023/12/24 02:41:29;;;;;;;1.70;1.60;;;;;;;7.82;57.39;94344.84;5059190;28;20575;-77
2023/12/24 02:43:59;;;;;;;1.60;1.50;;;;;;;7.81;57.50;94359.72;5059738;28;20196;-77
2023/12/24 02:46:26;;;;;;;1.80;1.60;;;;;;;7.80;57.11;94360.06;5059057;28;20185;-77
2023/12/24 02:48:56;;;;;;;1.67;1.58;;;;;;;7.78;56.92;94365.13;5059907;28;20197;-77
2023/12/24 02:51:23;;;;;;;1.52;1.42;;;;;;;7.78;56.81;94365.13;5059250;28;20193;-77
2023/12/24 02:53:56;;;;;;;1.60;1.50;;;;;;;7.76;57.00;94361.91;5058593;28;20197;-77
2023/12/24 02:56:23;;;;;;;1.65;1.55;;;;;;;7.74;56.78;94369.72;5059243;28;20270;-77
2023/12/24 02:58:50;;;;;;;1.70;1.60;;;;;;;7.73;56.87;94374.38;5059683;28;20501;-77
2023/12/24 03:01:17;;;;;;;2.60;1.50;;;;;;;7.72;57.01;94375.53;5059347;28;20250;-77
2023/12/24 03:03:47;;;;;;;1.38;1.27;;;;;;;7.71;57.20;94371.22;5058730;28;20227;-77
2023/12/24 03:06:16;;;;;;;2.15;1.50;;;;;;;7.69;57.01;94366.06;5059083;28;20259;-77
2023/12/24 03:08:43;;;;;;;1.50;1.40;;;;;;;7.69;57.04;94373.50;5059180;28;20201;-77
2023/12/24 03:11:13;;;;;;;1.50;1.40;;;;;;;7.68;57.08;94377.41;5058795;28;20270;-77
2023/12/24 03:13:41;;;;;;;1.60;1.50;;;;;;;7.65;56.97;94380.84;5058831;28;20250;-77
2023/12/24 03:16:09;;;;;;;1.55;1.45;;;;;;;7.64;56.94;94392.97;5048432;28;20237;-77
2023/12/24 03:18:39;;;;;;;1.50;1.40;;;;;;;7.63;56.75;94391.41;5055449;28;20232;-77
2023/12/24 03:21:06;;;;;;;1.60;1.50;;;;;;;7.62;56.93;94401.53;5039368;28;20194;-77
2023/12/24 03:23:34;;;;;;;1.50;1.40;;;;;;;7.63;57.05;94402.38;5038464;28;20247;-77
2023/12/24 03:26:04;;;;;;;1.73;1.60;;;;;;;7.63;56.74;94405.91;5056148;28;20182;-77
2023/12/24 03:28:38;;;;;;;1.48;1.38;;;;;;;7.66;56.77;94407.13;5055714;28;20244;-77
2023/12/24 03:31:05;;;;;;;1.70;1.60;;;;;;;7.66;56.75;94402.47;5041059;28;20209;-77
2023/12/24 03:33:35;;;;;;;1.67;1.58;;;;;;;7.67;56.72;94414.25;5056867;28;20684;-77
2023/12/24 03:36:05;;;;;;;1.67;1.58;;;;;;;7.69;57.22;94423.69;5056057;28;20182;-77
2023/12/24 03:38:33;;;;;;;1.60;1.50;;;;;;;7.70;56.84;94421.78;5054920;28;20209;-77
2023/12/24 03:40:59;;;;;;;1.83;1.73;;;;;;;7.70;56.97;94436.31;5038437;28;20503;-77
2023/12/24 03:43:26;;;;;;;1.83;1.70;;;;;;;7.72;56.48;94441.44;5038621;28;20256;-77
2023/12/24 03:45:55;;;;;;;1.60;1.50;;;;;;;7.71;56.71;94440.63;5039258;28;20198;-77
2023/12/24 03:48:25;;;;;;;1.80;1.70;;;;;;;7.73;57.38;94454.00;5055113;28;20208;-77
2023/12/24 03:50:55;;;;;;;2.20;2.00;;;;;;;7.77;56.76;94459.59;5037874;28;20216;-77
2023/12/24 03:53:25;;;;;;;1.80;1.70;;;;;;;7.80;56.52;94467.13;5038196;28;20198;-77
2023/12/24 03:55:52;;;;;;;1.90;1.77;;;;;;;7.84;56.26;94468.03;5038100;28;20238;-77
2023/12/24 03:58:19;;;;;;;2.13;1.92;;;;;;;7.86;56.44;94466.53;5038044;28;20209;-77
2023/12/24 04:00:46;;;;;;;2.28;2.05;;;;;;;7.87;56.73;94470.06;5037954;28;20213;-77
2023/12/24 04:03:17;;;;;;;2.97;2.13;;;;;;;7.86;56.57;94479.47;5054324;28;20236;-77
2023/12/24 04:05:46;;;;;;;2.15;1.90;;;;;;;7.86;56.82;94491.25;5037291;28;20194;-77
2023/12/24 04:08:13;;;;;;;4.25;2.10;;;;;;;7.85;56.76;94502.59;5054435;28;20205;-77
2023/12/24 04:10:40;;;;;;;2.40;2.20;;;;;;;7.84;56.99;94498.22;5037778;28;20213;-77
2023/12/24 04:13:10;;;;;;;2.15;1.95;;;;;;;7.83;57.15;94499.38;5054343;28;20213;-77
2023/12/24 04:15:37;;;;;;;3.00;2.20;;;;;;;7.80;57.21;94506.34;5044297;28;20648;-77
2023/12/24 04:18:06;;;;;;;2.33;2.13;;;;;;;7.79;57.53;94518.50;5058343;28;20193;-77
2023/12/24 04:20:35;;;;;;;2.22;2.03;;;;;;;7.78;57.68;94518.84;5058568;28;20239;-77
2023/12/24 04:23:02;;;;;;;2.30;2.10;;;;;;;7.79;57.49;94515.75;5057416;28;20564;-77
2023/12/24 04:25:29;;;;;;;2.40;2.03;;;;;;;7.79;57.66;94523.19;5057922;28;20267;-77
2023/12/24 04:27:56;;;;;;;2.00;1.88;;;;;;;7.76;57.56;94512.91;5057950;28;20208;-77
2023/12/24 04:30:23;;;;;;;2.22;2.00;;;;;;;7.75;57.50;94511.31;5057845;28;20221;-77
2023/12/24 04:32:53;;;;;;;2.55;2.15;;;;;;;7.75;57.72;94516.81;5075532;28;20242;-77
2023/12/24 04:35:20;;;;;;;2.50;2.30;;;;;;;7.77;57.69;94519.97;5057585;28;20201;-77
2023/12/24 04:37:49;;;;;;;2.25;2.05;;;;;;;7.75;58.15;94523.09;5057599;28;20193;-77
2023/12/24 04:40:16;;;;;;;2.97;2.10;;;;;;;7.75;57.79;94523.09;5058072;28;20212;-77
2023/12/24 04:42:43;;;;;;;2.42;2.17;;;;;;;7.76;58.17;94515.66;5058090;28;20200;-77
2023/12/24 04:45:11;;;;;;;1.98;1.88;;;;;;;7.74;58.46;94518.75;5057440;28;20200;-77
2023/12/24 04:47:39;;;;;;;1.80;1.70;;;;;;;7.74;58.34;94531.69;5075062;28;20190;-77
2023/12/24 04:50:13;;;;;;;2.30;2.13;;;;;;;7.74;58.40;94524.25;5057602;28;20209;-77
2023/12/24 04:52:41;;;;;;;2.28;1.90;;;;;;;7.77;58.44;94517.22;5074359;28;20212;-77
2023/12/24 04:55:11;;;;;;;2.08;1.95;;;;;;;7.78;58.09;94521.59;5057695;28;20216;-76
2023/12/24 04:57:38;;;;;;;2.10;1.90;;;;;;;7.80;58.20;94530.28;5057923;28;20197;-77
2023/12/24 05:00:10;;;;;;;2.15;1.95;;;;;;;7.84;58.30;94525.69;5057951;28;20196;-77
2023/12/24 05:02:39;;;;;;;1.75;1.65;;;;;;;7.87;57.83;94530.47;5057658;28;20197;-77
2023/12/24 05:05:06;;;;;;;1.95;1.70;;;;;;;7.90;57.85;94530.56;5057585;28;20247;-77
2023/12/24 05:07:35;;;;;;;1.63;1.48;;;;;;;7.93;57.74;94535.38;5057761;28;20213;-77
2023/12/24 05:10:02;;;;;;;2.25;1.60;;;;;;;7.95;57.30;94546.81;5074464;28;20227;-77
2023/12/24 05:12:30;;;;;;;1.60;1.50;;;;;;;7.97;57.29;94551.97;5057308;28;20208;-77
2023/12/24 05:15:04;;;;;;;1.60;1.50;;;;;;;7.97;57.40;94552.75;5059900;28;20610;-77
2023/12/24 05:17:32;;;;;;;1.58;1.48;;;;;;;8.01;57.00;94565.78;5080231;28;20280;-77
2023/12/24 05:20:02;;;;;;;1.67;1.58;;;;;;;8.01;57.24;94565.78;5081618;28;20185;-77
2023/12/24 05:22:32;;;;;;;1.77;1.67;;;;;;;8.02;57.20;94576.41;5081537;28;20192;-77
2023/12/24 05:24:59;;;;;;;1.70;1.60;;;;;;;8.04;57.03;94573.34;5080670;28;20204;-77
2023/12/24 05:27:26;;;;;;;2.53;1.48;;;;;;;8.03;57.29;94577.25;5098736;28;20254;-77
2023/12/24 05:29:59;;;;;;;1.60;1.50;;;;;;;8.05;57.11;94577.69;5081567;28;20212;-77
2023/12/24 05:32:26;;;;;;;1.60;1.50;;;;;;;8.03;57.44;94566.25;5081688;28;20204;-77
2023/12/24 05:34:56;;;;;;;1.40;1.30;;;;;;;8.03;57.06;94556.06;5080517;28;20185;-77
2023/12/24 05:37:24;;;;;;;1.45;1.35;;;;;;;8.02;57.36;94565.44;5080705;28;20208;-77
2023/12/24 05:39:53;;;;;;;1.33;1.23;;;;;;;8.02;56.94;94557.19;5080457;28;20200;-77
2023/12/24 05:42:22;;;;;;;1.40;1.30;;;;;;;8.01;57.26;94565.78;5080157;28;20623;-77
2023/12/24 05:44:51;;;;;;;1.60;1.50;;;;;;;8.01;57.55;94577.56;5081199;28;20283;-77
2023/12/24 05:47:20;;;;;;;1.60;1.30;;;;;;;7.99;57.58;94573.56;5081137;28;20200;-77
2023/12/24 05:49:48;;;;;;;1.50;1.40;;;;;;;7.97;57.40;94573.94;5080877;28;20213;-77
2023/12/24 05:52:16;;;;;;;1.60;1.50;;;;;;;7.95;57.73;94563.31;5080194;28;20245;-77
2023/12/24 05:54:43;;;;;;;1.88;1.73;;;;;;;7.95;57.44;94556.97;5080111;28;20207;-77
2023/12/24 05:57:10;;;;;;;1.80;1.70;;;;;;;7.94;57.86;94555.41;5080277;28;20277;-77
2023/12/24 05:59:38;;;;;;;2.15;1.95;;;;;;;7.95;57.51;94554.25;5098000;28;20241;-77
2023/12/24 06:02:07;;;;;;;1.92;1.55;;;;;;;7.93;57.74;94559.28;5080309;28;20657;-77
2023/12/24 06:04:38;;;;;;;2.50;2.00;;;;;;;7.91;57.83;94567.88;5081068;28;20299;-77
2023/12/24 06:07:05;;;;;;;1.73;1.63;;;;;;;7.91;57.74;94558.84;5079987;28;20257;-77
2023/12/24 06:09:32;;;;;;;1.92;1.70;;;;;;;7.91;57.89;94562.38;5080902;28;20214;-77
2023/12/24 06:12:00;;;;;;;2.53;2.20;;;;;;;7.93;57.69;94570.28;5098080;28;20244;-77
2023/12/24 06:14:29;;;;;;;1.80;1.70;;;;;;;7.93;57.71;94564.78;5080074;28;20204;-77
2023/12/24 06:16:58;;;;;;;1.73;1.55;;;;;;;7.94;57.87;94574.63;5058590;28;20233;-77
2023/12/24 06:19:25;;;;;;;2.17;1.73;;;;;;;7.96;57.49;94583.31;5060461;28;20259;-77
2023/12/24 06:21:59;;;;;;;2.65;1.30;;;;;;;7.99;57.08;94587.28;5043507;28;20599;-77
2023/12/24 06:24:26;;;;;;;1.45;1.40;;;;;;;8.03;57.06;94583.53;5043416;28;20215;-77
2023/12/24 06:26:58;;;;;;;1.60;1.50;;;;;;;8.06;56.93;94588.31;5060027;28;20585;-77
2023/12/24 06:29:25;;;;;;;1.00;1.00;;;;;;;8.08;56.82;94597.00;5058604;28;20269;-78
2023/12/24 06:31:52;;;;;;;1.48;1.38;;;;;;;8.11;56.90;94593.56;5058904;28;20230;-78
2023/12/24 06:34:19;;;;;;;1.67;1.58;;;;;;;8.13;56.51;94584.97;5059901;28;20201;-77
2023/12/24 06:36:47;;;;;;;1.50;1.40;;;;;;;8.16;56.71;94579.56;5060069;28;20228;-77
2023/12/24 06:39:16;;;;;;;1.30;1.20;;;;;;;8.19;56.52;94584.38;5076197;28;20193;-77
2023/12/24 06:41:45;;;;;;;2.10;1.27;;;;;;;8.22;56.41;94593.06;5059464;28;20185;-77
2023/12/24 06:44:13;;;;;;;2.03;1.40;;;;;;;8.24;56.28;94588.81;5059687;28;20251;-77
2023/12/24 06:46:40;;;;;;;1.42;1.33;;;;;;;8.27;56.12;94609.31;5076998;28;20204;-77
2023/12/24 06:49:07;;;;;;;1.10;1.10;;;;;;;8.29;55.90;94610.56;5059353;28;20197;-77
2023/12/24 06:51:34;;;;;;;1.40;1.30;;;;;;;8.31;55.73;94621.97;5059590;28;20519;-77
2023/12/24 06:54:01;;;;;;;1.30;1.20;;;;;;;8.34;56.08;94628.72;5059844;28;20189;-77
2023/12/24 06:56:29;;;;;;;1.75;1.23;;;;;;;8.35;55.88;94630.31;5059185;28;20198;-77
2023/12/24 06:58:56;;;;;;;1.30;1.20;;;;;;;8.38;55.96;94635.16;5059419;28;20198;-77
2023/12/24 07:01:24;;;;;;;1.73;1.15;;;;;;;8.39;55.57;94640.31;5059642;28;20184;-77
2023/12/24 07:03:52;;;;;;;1.00;1.00;;;;;;;8.42;55.51;94645.13;5060004;28;20367;-78
2023/12/24 07:06:21;;;;;;;1.20;1.10;;;;;;;8.45;55.30;94654.59;5058565;28;20204;-77
2023/12/24 07:08:48;;;;;;;1.20;1.10;;;;;;;8.47;55.31;94649.56;5058653;28;20205;-77
2023/12/24 07:11:18;;;;;;;1.20;1.10;;;;;;;8.49;55.41;94647.25;5076610;28;20205;-77
2023/12/24 07:13:47;;;;;;;1.27;1.17;;;;;;;8.52;55.38;94645.75;5076337;28;20509;-77
2023/12/24 07:16:16;;;;;;;1.75;1.65;;;;;;;8.54;55.52;94655.25;5058492;28;20240;-77
2023/12/24 07:18:46;;;;;;;1.90;1.67;;;;;;;8.56;55.20;94655.69;5059187;28;20189;-77
2023/12/24 07:21:14;;;;;;;2.35;1.90;;;;;;;8.56;55.17;94661.19;5058724;28;20193;-77
2023/12/24 07:23:42;;;;;;;1.83;1.67;;;;;;;8.57;55.24;94659.25;5058363;28;20193;-77
2023/12/24 07:26:10;;;;;;;1.98;1.88;;;;;;;8.60;55.34;94645.59;5058821;28;20197;-77
2023/12/24 07:28:37;;;;;;;1.60;1.50;;;;;;;8.63;54.80;94644.09;5058323;28;20250;-77
2023/12/24 07:31:06;;;;;;;1.83;1.60;;;;;;;8.67;54.59;94653.25;5059079;28;20217;-77
2023/12/24 07:33:33;;;;;;;1.60;1.50;;;;;;;8.71;54.66;94654.13;5059263;28;20286;-77
2023/12/24 07:36:01;;;;;;;1.50;1.30;;;;;;;8.74;54.08;94655.41;5058932;28;20258;-76
2023/12/24 07:38:29;;;;;;;1.50;1.40;;;;;;;8.77;54.41;94661.00;5075219;28;20205;-76
2023/12/24 07:40:58;;;;;;;1.50;1.30;;;;;;;8.80;54.32;94670.50;5058610;28;20197;-76
2023/12/24 07:43:27;;;;;;;2.33;1.67;;;;;;;8.80;54.10;94663.03;5058084;28;20196;-76
2023/12/24 07:45:54;;;;;;;1.92;1.52;;;;;;;8.83;54.46;94667.84;5058828;28;20288;-76
2023/12/24 07:48:23;;;;;;;2.08;1.40;;;;;;;8.85;53.79;94654.53;5058768;28;20205;-76
2023/12/24 07:50:51;;;;;;;1.58;1.48;;;;;;;8.87;54.20;94649.50;5058075;28;20226;-76
2023/12/24 07:53:18;;;;;;;1.75;1.50;;;;;;;8.91;54.10;94642.13;5058202;28;20569;-76
2023/12/24 07:55:46;;;;;;;2.30;2.10;;;;;;;8.96;54.03;94646.56;5058169;28;20223;-76
2023/12/24 07:58:15;;;;;;;1.70;1.60;;;;;;;8.99;53.68;94664.31;5058201;28;20557;-76
2023/12/24 08:00:42;;;;;;;1.75;1.65;;;;;;;9.00;53.35;94655.72;5057883;28;20545;-76
2023/12/24 08:03:09;;;;;;;1.52;1.42;;;;;;;9.04;53.16;94670.38;5058393;28;20181;-76
2023/12/24 08:05:38;;;;;;;1.70;1.52;;;;;;;9.06;53.14;94670.81;5058048;28;20219;-76
2023/12/24 08:08:06;;;;;;;2.00;1.80;;;;;;;9.10;53.07;94681.91;5057966;28;20201;-76
2023/12/24 08:10:34;;;;;;;1.52;1.42;;;;;;;9.11;52.82;94678.00;5057597;28;20662;-76
2023/12/24 08:13:04;;;;;;;1.67;1.50;;;;;;;9.15;52.94;94665.16;5057633;28;20212;-76
2023/12/24 08:15:34;;;;;;;1.60;1.50;;;;;;;9.19;52.45;94652.28;5059816;28;20235;-76
2023/12/24 08:18:01;;;;;;;1.73;1.30;;;;;;;9.23;52.33;94647.66;5057839;28;20208;-76
2023/12/24 08:20:28;;;;;;;1.50;1.40;;;;;;;9.28;52.12;94658.41;5057752;28;20267;-76
2023/12/24 08:22:57;;;;;;;2.30;2.10;;;;;;;9.34;52.04;94656.19;5058208;28;20197;-76
2023/12/24 08:25:24;;;;;;;2.33;2.08;;;;;;;9.38;51.74;94649.63;5057895;28;20201;-76
2023/12/24 08:27:52;;;;;;;2.85;2.15;;;;;;;9.44;51.66;94650.16;5057595;28;20291;-76
2023/12/24 08:30:21;;;;;;;3.13;2.20;;;;;;;9.48;51.47;94626.28;5057632;28;20287;-76
2023/12/24 08:32:50;;;;;;;2.38;1.88;;;;;;;9.50;51.67;94623.94;5057776;28;20208;-76
2023/12/24 08:35:17;;;;;;;2.42;1.80;;;;;;;9.52;51.51;94637.38;5057838;28;20216;-76
2023/12/24 08:37:46;;;;;;;2.30;1.65;;;;;;;9.56;51.57;94641.00;5057401;28;20726;-76
2023/12/24 08:40:16;;;;;;;1.88;1.77;;;;;;;9.61;51.34;94638.75;5057456;28;20201;-76
2023/12/24 08:42:43;;;;;;;2.00;1.80;;;;;;;9.64;51.21;94643.56;5057411;28;20207;-77
2023/12/24 08:45:12;;;;;;;1.23;1.13;;;;;;;9.71;50.90;94650.41;5057121;28;20250;-77
2023/12/24 08:47:40;;;;;;;1.60;1.50;;;;;;;9.78;50.54;94650.56;5075596;28;20185;-77
2023/12/24 08:50:13;;;;;;;1.77;1.38;;;;;;;9.88;50.53;94647.28;5057779;28;20246;-76
2023/12/24 08:52:42;;;;;;;2.08;1.88;;;;;;;10.02;50.17;94647.59;5060661;28;20248;-76
2023/12/24 08:55:11;;;;;;;1.60;1.50;;;;;;;10.19;49.19;94646.38;5061541;28;20242;-76
2023/12/24 08:57:46;;;;;;;1.60;1.50;;;;;;;10.38;49.05;94647.59;5079360;28;20268;-76
2023/12/24 09:00:17;;;;;;;1.50;1.40;;;;;;;10.63;48.65;94639.81;5061442;28;20200;-76
2023/12/24 09:02:45;;;;;;;1.92;1.73;;;;;;;10.90;49.27;94640.75;5061697;28;20207;-76
2023/12/24 09:05:14;;;;;;;2.03;1.83;;;;;;;11.19;48.24;94637.34;5059505;28;20227;-76
2023/12/24 09:07:41;;;;;;;2.50;2.30;;;;;;;11.43;47.56;94635.38;5061846;28;20262;-76
2023/12/24 09:10:10;;;;;;;2.00;1.80;;;;;;;11.67;46.80;94626.72;5062163;28;20216;-76
2023/12/24 09:12:37;;;;;;;2.63;1.67;;;;;;;11.89;46.03;94629.84;5061398;28;20734;-76
2023/12/24 09:15:07;;;;;;;2.25;1.52;;;;;;;12.10;45.51;94626.59;5062157;28;20607;-76
2023/12/24 09:17:34;;;;;;;1.50;1.40;;;;;;;12.39;44.90;94642.41;5062751;28;20560;-76
2023/12/24 09:20:04;;;;;;;1.60;1.50;;;;;;;12.66;44.10;94632.06;5061890;28;20262;-76
2023/12/24 09:22:32;;;;;;;1.63;1.50;;;;;;;12.93;44.21;94632.00;5062629;28;20284;-77
2023/12/24 09:24:59;;;;;;;2.92;1.70;;;;;;;13.21;43.82;94632.28;5060668;28;20259;-77
2023/12/24 09:27:27;;;;;;;1.80;1.60;;;;;;;13.69;42.49;94637.13;5060553;28;20201;-77
2023/12/24 09:29:56;;;;;;;1.45;1.25;;;;;;;14.02;39.82;94635.38;5078482;28;20609;-77
2023/12/24 09:32:29;;;;;;;1.77;1.52;;;;;;;14.24;40.41;94628.00;5061721;28;20213;-77
2023/12/24 09:34:58;;;;;;;1.42;1.33;;;;;;;14.53;39.91;94627.00;5061145;28;20220;-76
2023/12/24 09:37:27;;;;;;;2.03;1.58;;;;;;;14.75;38.91;94630.66;5060506;28;20213;-76
2023/12/24 09:39:57;;;;;;;1.67;1.58;;;;;;;14.85;39.07;94627.16;5060842;28;20201;-76
2023/12/24 09:42:24;;;;;;;1.95;1.75;;;;;;;15.12;38.24;94626.81;5060952;28;20211;-76
2023/12/24 09:44:51;;;;;;;3.30;1.70;;;;;;;15.13;38.29;94620.06;5060591;28;20197;-77
2023/12/24 09:47:18;;;;;;;2.38;1.77;;;;;;;15.30;38.41;94611.00;5060985;28;20197;-77
2023/12/24 09:49:46;;;;;;;2.35;1.77;;;;;;;15.37;37.91;94615.78;5061089;28;20197;-76
2023/12/24 09:52:14;;;;;;;2.30;2.10;;;;;;;15.40;38.54;94618.56;5060385;28;20434;-76
2023/12/24 09:54:45;;;;;;;1.95;1.63;;;;;;;15.55;37.28;94608.25;5060124;28;20205;-76
2023/12/24 09:57:13;;;;;;;2.97;1.75;;;;;;;15.92;37.45;94590.41;5060116;28;20696;-76
2023/12/24 09:59:43;;;;;;;2.00;1.80;;;;;;;16.20;37.18;94592.34;5060037;28;20205;-76
2023/12/24 10:02:11;;;;;;;2.15;1.65;;;;;;;15.87;35.96;94571.34;5060332;28;20212;-76
2023/12/24 10:04:39;;;;;;;1.98;1.45;;;;;;;15.67;36.75;94557.03;5059896;28;20209;-76
2023/12/24 10:07:10;;;;;;;2.05;1.85;;;;;;;16.03;36.55;94543.09;5060514;28;20605;-76
2023/12/24 10:09:45;;;;;;;1.50;1.40;;;;;;;16.46;36.04;94538.19;5059898;28;20304;-76
2023/12/24 10:12:12;;;;;;;1.75;1.65;;;;;;;16.57;35.51;94532.59;5060351;28;20270;-76
2023/12/24 10:14:43;;;;;;;2.05;1.52;;;;;;;16.55;35.32;94537.75;5059517;28;20201;-76
2023/12/24 10:17:11;;;;;;;1.80;1.58;;;;;;;16.40;35.80;94530.66;5079506;28;20204;-76
2023/12/24 10:19:38;;;;;;;2.35;1.90;;;;;;;16.29;36.44;94527.91;5080028;28;20193;-76
2023/12/24 10:22:10;;;;;;;2.00;1.83;;;;;;;16.21;36.45;94512.44;5080163;28;20192;-76
2023/12/24 10:24:42;;;;;;;1.90;1.60;;;;;;;15.85;36.47;94502.22;5079550;28;20204;-76
2023/12/24 10:27:14;;;;;;;2.15;1.40;;;;;;;15.48;37.33;94493.50;5080035;28;20196;-76
2023/12/24 10:29:45;;;;;;;2.53;1.80;;;;;;;15.01;38.13;94484.38;5080155;28;20284;-76
2023/12/24 10:32:12;;;;;;;2.03;1.73;;;;;;;14.42;39.07;94479.88;5079911;28;20212;-76
2023/12/24 10:34:42;;;;;;;2.22;1.52;;;;;;;14.10;39.82;94476.19;5079945;28;20189;-76
2023/12/24 10:37:26;;;;;;;1.98;1.77;;;;;;;13.86;40.85;94480.41;5080154;28;20211;-77
2023/12/24 10:39:53;;;;;;;2.00;1.77;;;;;;;13.68;41.46;94480.31;5097770;28;20184;-76
2023/12/24 10:42:21;;;;;;;3.85;2.00;;;;;;;13.64;41.62;94488.63;5080136;28;20185;-76
2023/12/24 10:44:48;;;;;;;1.85;1.63;;;;;;;13.47;41.65;94495.66;5079863;28;20261;-76
2023/12/24 10:47:15;;;;;;;2.10;1.65;;;;;;;13.46;41.94;94496.81;5079424;28;20204;-76
2023/12/24 10:49:44;;;;;;;2.22;1.63;;;;;;;13.52;41.96;94507.53;5079769;28;20230;-76
2023/12/24 10:52:11;;;;;;;2.58;1.90;;;;;;;13.58;42.24;94489.34;5079898;28;20220;-76
2023/12/24 10:54:40;;;;;;;3.03;1.60;;;;;;;13.58;41.88;94490.19;5079073;28;20208;-76
2023/12/24 10:57:20;;;;;;;1.63;1.50;;;;;;;13.61;42.32;94494.91;5079767;28;20208;-76
2023/12/24 11:00:22;;;;;;;1.85;1.63;;;;;;;13.58;42.26;94492.94;5079528;28;20643;-76
2023/12/24 11:02:52;;;;;;;1.60;1.40;;;;;;;13.53;41.78;94495.28;5076311;28;20204;-76
2023/12/24 11:05:51;;;;;;;3.80;1.83;;;;;;;13.54;42.14;94492.09;5079489;28;20193;-76
2023/12/24 11:08:31;;;;;;;4.00;1.70;;;;;;;13.61;42.55;94483.06;5079709;28;20281;-76
2023/12/24 11:11:03;;;;;;;2.80;1.98;;;;;;;13.66;43.02;94491.00;5079378;28;20196;-76
2023/12/24 11:13:47;;;;;;;2.40;1.90;;;;;;;13.79;42.44;94491.47;5078450;28;20215;-76
2023/12/24 11:16:39;;;;;;;3.20;2.00;;;;;;;13.85;42.56;94490.72;5065895;28;20232;-76
2023/12/24 11:19:06;;;;;;;3.72;2.10;;;;;;;13.89;42.67;94487.97;5059587;28;20201;-77
2023/12/24 11:22:07;;;;;;;3.28;1.95;;;;;;;13.94;42.30;94496.72;5059232;28;20197;-76
2023/12/24 11:24:42;;;;;;;4.05;1.52;;;;;;;13.85;42.20;94490.72;5059404;28;20204;-76
2023/12/24 11:27:13;;;;;;;3.25;1.92;;;;;;;13.75;42.42;94497.00;5058595;28;20197;-76
2023/12/24 11:29:47;;;;;;;3.25;2.15;;;;;;;13.64;42.72;94490.59;5058826;28;20221;-77
2023/12/24 11:32:38;;;;;;;2.88;2.20;;;;;;;13.95;42.53;94491.97;5058563;28;20220;-77
2023/12/24 11:35:06;;;;;;;2.22;1.75;;;;;;;14.14;42.00;94474.22;5039567;28;20213;-77
2023/12/24 11:37:35;;;;;;;3.65;2.00;;;;;;;14.03;42.03;94481.69;5058477;28;20215;-76
2023/12/24 11:40:07;;;;;;;3.40;2.30;;;;;;;13.83;42.40;94490.28;5059075;28;20201;-76
2023/12/24 11:42:52;;;;;;;3.15;2.10;;;;;;;13.58;42.94;94478.28;5058489;28;20203;-77
2023/12/24 11:45:21;;;;;;;4.53;2.20;;;;;;;13.47;43.06;94464.34;5058737;28;20197;-76
2023/12/24 11:47:47;;;;;;;4.53;1.98;;;;;;;13.44;43.68;94476.22;5058263;28;20228;-75
2023/12/24 11:50:14;;;;;;;3.00;2.00;;;;;;;13.52;43.45;94466.00;5058137;28;20205;-75